sensor_id;sensor_type;location;lat;lon;timestamp;temperature;humidity
33655;DHT22;19997;51.274;22.506;2023-03-14T00:01:10;9.00;75.30
33655;DHT22;19997;51.274;22.506;2023-03-14T00:03:38;9.00;75.40
33655;DHT22;19997;51.274;22.506;2023-03-14T00:06:06;8.90;75.40
33655;DHT22;19997;51.274;22.506;2023-03-14T00:08:34;8.90;75.30
33655;DHT22;19997;51.274;22.506;2023-03-14T00:11:05;8.90;75.40
33655;DHT22;19997;51.274;22.506;2023-03-14T00:13:32;8.90;75.40
33655;DHT22;19997;51.274;22.506;2023-03-14T00:16:03;8.90;75.20
33655;DHT22;19997;51.274;22.506;2023-03-14T00:18:32;8.90;75.40
33655;DHT22;19997;51.274;22.506;2023-03-14T00:21:00;8.90;75.50
33655;DHT22;19997;51.274;22.506;2023-03-14T00:23:28;8.90;75.50
33655;DHT22;19997;51.274;22.506;2023-03-14T00:25:58;8.80;75.40
33655;DHT22;19997;51.274;22.506;2023-03-14T00:28:27;8.80;75.50
33655;DHT22;19997;51.274;22.506;2023-03-14T00:30:55;8.80;75.50
33655;DHT22;19997;51.274;22.506;2023-03-14T00:33:22;8.80;75.60
33655;DHT22;19997;51.274;22.506;2023-03-14T00:35:54;8.80;75.60
33655;DHT22;19997;51.274;22.506;2023-03-14T00:38:22;8.70;75.60
33655;DHT22;19997;51.274;22.506;2023-03-14T00:40:50;8.70;75.60
33655;DHT22;19997;51.274;22.506;2023-03-14T00:43:18;8.70;75.50
33655;DHT22;19997;51.274;22.506;2023-03-14T00:45:47;8.70;75.50
33655;DHT22;19997;51.274;22.506;2023-03-14T00:48:14;8.70;75.50
33655;DHT22;19997;51.274;22.506;2023-03-14T00:50:41;8.80;75.60
33655;DHT22;19997;51.274;22.506;2023-03-14T00:53:10;8.80;75.50
33655;DHT22;19997;51.274;22.506;2023-03-14T00:55:37;8.80;75.40
33655;DHT22;19997;51.274;22.506;2023-03-14T00:58:05;8.80;75.40
33655;DHT22;19997;51.274;22.506;2023-03-14T01:00:32;8.80;75.40
33655;DHT22;19997;51.274;22.506;2023-03-14T01:03:00;8.80;75.40
33655;DHT22;19997;51.274;22.506;2023-03-14T01:05:27;8.80;75.10
33655;DHT22;19997;51.274;22.506;2023-03-14T01:07:54;8.90;75.10
33655;DHT22;19997;51.274;22.506;2023-03-14T01:10:23;8.90;75.00
33655;DHT22;19997;51.274;22.506;2023-03-14T01:12:50;8.90;74.90
33655;DHT22;19997;51.274;22.506;2023-03-14T01:15:18;8.90;74.80
33655;DHT22;19997;51.274;22.506;2023-03-14T01:17:45;8.90;74.80
33655;DHT22;19997;51.274;22.506;2023-03-14T01:20:14;8.90;74.40
33655;DHT22;19997;51.274;22.506;2023-03-14T01:22:43;8.90;74.40
33655;DHT22;19997;51.274;22.506;2023-03-14T01:25:12;8.90;74.40
33655;DHT22;19997;51.274;22.506;2023-03-14T01:27:41;8.90;74.30
33655;DHT22;19997;51.274;22.506;2023-03-14T01:30:09;8.90;74.20
33655;DHT22;19997;51.274;22.506;2023-03-14T01:32:38;8.90;74.20
33655;DHT22;19997;51.274;22.506;2023-03-14T01:35:06;8.80;74.00
33655;DHT22;19997;51.274;22.506;2023-03-14T01:37:34;8.80;74.10
33655;DHT22;19997;51.274;22.506;2023-03-14T01:40:03;8.80;74.10
33655;DHT22;19997;51.274;22.506;2023-03-14T01:42:31;8.80;73.90
33655;DHT22;19997;51.274;22.506;2023-03-14T01:45:01;8.80;74.00
33655;DHT22;19997;51.274;22.506;2023-03-14T01:47:28;8.80;74.00
33655;DHT22;19997;51.274;22.506;2023-03-14T01:49:59;8.80;73.90
33655;DHT22;19997;51.274;22.506;2023-03-14T01:52:32;8.80;74.60
33655;DHT22;19997;51.274;22.506;2023-03-14T01:55:05;8.80;73.80
33655;DHT22;19997;51.274;22.506;2023-03-14T01:57:35;8.80;74.00
33655;DHT22;19997;51.274;22.506;2023-03-14T02:00:06;8.80;74.00
33655;DHT22;19997;51.274;22.506;2023-03-14T02:02:40;8.80;74.00
33655;DHT22;19997;51.274;22.506;2023-03-14T02:05:10;8.80;73.80
33655;DHT22;19997;51.274;22.506;2023-03-14T02:07:43;8.80;74.60
33655;DHT22;19997;51.274;22.506;2023-03-14T02:10:21;8.80;73.70
33655;DHT22;19997;51.274;22.506;2023-03-14T02:12:51;8.80;73.70
33655;DHT22;19997;51.274;22.506;2023-03-14T02:15:31;8.80;73.60
33655;DHT22;19997;51.274;22.506;2023-03-14T02:18:34;8.80;73.70
33655;DHT22;19997;51.274;22.506;2023-03-14T02:21:20;8.90;73.50
33655;DHT22;19997;51.274;22.506;2023-03-14T02:23:57;8.90;73.50
33655;DHT22;19997;51.274;22.506;2023-03-14T02:26:35;8.90;73.40
33655;DHT22;19997;51.274;22.506;2023-03-14T02:29:05;8.90;73.50
33655;DHT22;19997;51.274;22.506;2023-03-14T02:31:32;8.90;73.30
33655;DHT22;19997;51.274;22.506;2023-03-14T02:34:00;8.90;73.30
33655;DHT22;19997;51.274;22.506;2023-03-14T02:36:29;8.90;73.20
33655;DHT22;19997;51.274;22.506;2023-03-14T02:39:03;8.90;73.30
33655;DHT22;19997;51.274;22.506;2023-03-14T02:41:32;8.90;73.20
33655;DHT22;19997;51.274;22.506;2023-03-14T02:44:05;9.00;73.30
33655;DHT22;19997;51.274;22.506;2023-03-14T02:46:33;9.00;73.20
33655;DHT22;19997;51.274;22.506;2023-03-14T02:49:03;9.00;73.40
33655;DHT22;19997;51.274;22.506;2023-03-14T02:51:32;9.00;73.20
33655;DHT22;19997;51.274;22.506;2023-03-14T02:53:59;9.10;73.30
33655;DHT22;19997;51.274;22.506;2023-03-14T02:56:27;9.10;73.20
33655;DHT22;19997;51.274;22.506;2023-03-14T02:58:54;9.10;72.90
33655;DHT22;19997;51.274;22.506;2023-03-14T03:01:40;9.10;73.10
33655;DHT22;19997;51.274;22.506;2023-03-14T03:04:07;9.10;73.00
33655;DHT22;19997;51.274;22.506;2023-03-14T03:06:34;9.20;73.80
33655;DHT22;19997;51.274;22.506;2023-03-14T03:09:01;9.20;73.00
33655;DHT22;19997;51.274;22.506;2023-03-14T03:11:29;9.20;73.10
33655;DHT22;19997;51.274;22.506;2023-03-14T03:13:57;9.20;73.10
33655;DHT22;19997;51.274;22.506;2023-03-14T03:16:27;9.20;73.10
33655;DHT22;19997;51.274;22.506;2023-03-14T03:18:55;9.30;73.20
33655;DHT22;19997;51.274;22.506;2023-03-14T03:21:22;9.30;72.90
33655;DHT22;19997;51.274;22.506;2023-03-14T03:23:50;9.40;72.80
33655;DHT22;19997;51.274;22.506;2023-03-14T03:26:17;9.50;72.60
33655;DHT22;19997;51.274;22.506;2023-03-14T03:28:44;9.50;72.60
33655;DHT22;19997;51.274;22.506;2023-03-14T03:31:13;9.60;72.50
33655;DHT22;19997;51.274;22.506;2023-03-14T03:33:40;9.70;72.30
33655;DHT22;19997;51.274;22.506;2023-03-14T03:36:10;9.70;72.00
33655;DHT22;19997;51.274;22.506;2023-03-14T03:38:38;9.70;71.90
33655;DHT22;19997;51.274;22.506;2023-03-14T03:41:07;9.70;71.70
33655;DHT22;19997;51.274;22.506;2023-03-14T03:43:35;9.70;71.70
33655;DHT22;19997;51.274;22.506;2023-03-14T03:46:05;9.70;71.90
33655;DHT22;19997;51.274;22.506;2023-03-14T03:48:34;9.60;71.60
33655;DHT22;19997;51.274;22.506;2023-03-14T03:51:04;9.60;71.50
33655;DHT22;19997;51.274;22.506;2023-03-14T03:53:33;9.50;71.60
33655;DHT22;19997;51.274;22.506;2023-03-14T03:56:06;9.50;71.70
33655;DHT22;19997;51.274;22.506;2023-03-14T03:58:33;9.40;71.70
33655;DHT22;19997;51.274;22.506;2023-03-14T04:01:01;9.40;71.70
33655;DHT22;19997;51.274;22.506;2023-03-14T04:03:29;9.30;71.70
33655;DHT22;19997;51.274;22.506;2023-03-14T04:05:59;9.30;71.80
33655;DHT22;19997;51.274;22.506;2023-03-14T04:08:27;9.30;72.00
33655;DHT22;19997;51.274;22.506;2023-03-14T04:10:58;9.30;72.10
33655;DHT22;19997;51.274;22.506;2023-03-14T04:13:44;9.30;72.10
33655;DHT22;19997;51.274;22.506;2023-03-14T04:16:15;9.30;72.00
33655;DHT22;19997;51.274;22.506;2023-03-14T04:18:43;9.30;72.00
33655;DHT22;19997;51.274;22.506;2023-03-14T04:21:10;9.40;71.90
33655;DHT22;19997;51.274;22.506;2023-03-14T04:23:44;9.40;71.90
33655;DHT22;19997;51.274;22.506;2023-03-14T04:26:13;9.40;71.80
33655;DHT22;19997;51.274;22.506;2023-03-14T04:28:40;9.30;71.60
33655;DHT22;19997;51.274;22.506;2023-03-14T04:31:09;9.30;71.60
33655;DHT22;19997;51.274;22.506;2023-03-14T04:33:36;9.20;71.50
33655;DHT22;19997;51.274;22.506;2023-03-14T04:36:04;9.20;71.40
33655;DHT22;19997;51.274;22.506;2023-03-14T04:38:32;9.20;72.20
33655;DHT22;19997;51.274;22.506;2023-03-14T04:41:00;9.10;71.60
33655;DHT22;19997;51.274;22.506;2023-03-14T04:43:32;9.10;71.60
33655;DHT22;19997;51.274;22.506;2023-03-14T04:46:05;9.00;71.70
33655;DHT22;19997;51.274;22.506;2023-03-14T04:48:32;9.00;71.80
33655;DHT22;19997;51.274;22.506;2023-03-14T04:51:00;9.00;71.80
33655;DHT22;19997;51.274;22.506;2023-03-14T04:53:31;8.90;71.80
33655;DHT22;19997;51.274;22.506;2023-03-14T04:55:59;8.90;71.80
33655;DHT22;19997;51.274;22.506;2023-03-14T04:58:34;8.90;71.90
33655;DHT22;19997;51.274;22.506;2023-03-14T05:01:04;8.80;71.90
33655;DHT22;19997;51.274;22.506;2023-03-14T05:03:49;8.80;71.80
33655;DHT22;19997;51.274;22.506;2023-03-14T05:06:43;8.80;71.70
33655;DHT22;19997;51.274;22.506;2023-03-14T05:09:30;8.80;71.60
33655;DHT22;19997;51.274;22.506;2023-03-14T05:12:10;8.80;71.60
33655;DHT22;19997;51.274;22.506;2023-03-14T05:15:08;8.80;71.50
33655;DHT22;19997;51.274;22.506;2023-03-14T05:18:03;8.80;71.50
33655;DHT22;19997;51.274;22.506;2023-03-14T05:20:56;8.80;71.20
33655;DHT22;19997;51.274;22.506;2023-03-14T05:23:42;8.80;71.20
33655;DHT22;19997;51.274;22.506;2023-03-14T05:26:29;8.90;71.20
33655;DHT22;19997;51.274;22.506;2023-03-14T05:29:17;8.90;71.20
33655;DHT22;19997;51.274;22.506;2023-03-14T05:32:08;8.90;71.10
33655;DHT22;19997;51.274;22.506;2023-03-14T05:34:53;8.90;71.20
33655;DHT22;19997;51.274;22.506;2023-03-14T05:37:33;8.90;71.00
33655;DHT22;19997;51.274;22.506;2023-03-14T05:40:24;9.00;70.90
33655;DHT22;19997;51.274;22.506;2023-03-14T05:43:06;9.00;70.80
33655;DHT22;19997;51.274;22.506;2023-03-14T05:45:46;9.10;70.60
33655;DHT22;19997;51.274;22.506;2023-03-14T05:48:33;9.10;70.40
33655;DHT22;19997;51.274;22.506;2023-03-14T05:51:00;9.20;70.10
33655;DHT22;19997;51.274;22.506;2023-03-14T05:53:42;9.20;69.90
33655;DHT22;19997;51.274;22.506;2023-03-14T05:56:15;9.20;69.40
33655;DHT22;19997;51.274;22.506;2023-03-14T05:59:06;9.30;69.30
33655;DHT22;19997;51.274;22.506;2023-03-14T06:01:54;9.40;69.20
33655;DHT22;19997;51.274;22.506;2023-03-14T06:04:27;9.50;69.20
33655;DHT22;19997;51.274;22.506;2023-03-14T06:06:58;9.50;68.90
33655;DHT22;19997;51.274;22.506;2023-03-14T06:09:25;9.50;68.60
33655;DHT22;19997;51.274;22.506;2023-03-14T06:11:55;9.60;68.30
33655;DHT22;19997;51.274;22.506;2023-03-14T06:14:22;9.60;68.20
33655;DHT22;19997;51.274;22.506;2023-03-14T06:16:50;9.70;68.20
33655;DHT22;19997;51.274;22.506;2023-03-14T06:19:19;9.70;68.00
33655;DHT22;19997;51.274;22.506;2023-03-14T06:21:48;9.80;67.60
33655;DHT22;19997;51.274;22.506;2023-03-14T06:24:15;9.80;67.50
33655;DHT22;19997;51.274;22.506;2023-03-14T06:26:46;9.90;67.50
33655;DHT22;19997;51.274;22.506;2023-03-14T06:29:14;9.90;67.20
33655;DHT22;19997;51.274;22.506;2023-03-14T06:31:41;10.00;66.90
33655;DHT22;19997;51.274;22.506;2023-03-14T06:34:09;10.00;66.60
33655;DHT22;19997;51.274;22.506;2023-03-14T06:36:38;10.10;66.70
33655;DHT22;19997;51.274;22.506;2023-03-14T06:39:07;10.10;66.50
33655;DHT22;19997;51.274;22.506;2023-03-14T06:41:39;10.20;66.60
33655;DHT22;19997;51.274;22.506;2023-03-14T06:44:07;10.30;66.40
33655;DHT22;19997;51.274;22.506;2023-03-14T06:46:34;10.30;66.40
33655;DHT22;19997;51.274;22.506;2023-03-14T06:49:02;10.40;66.40
33655;DHT22;19997;51.274;22.506;2023-03-14T06:51:29;10.50;66.10
33655;DHT22;19997;51.274;22.506;2023-03-14T06:53:56;10.60;66.10
33655;DHT22;19997;51.274;22.506;2023-03-14T06:56:28;10.60;65.70
33655;DHT22;19997;51.274;22.506;2023-03-14T06:58:56;10.70;65.80
33655;DHT22;19997;51.274;22.506;2023-03-14T07:01:27;10.80;65.40
33655;DHT22;19997;51.274;22.506;2023-03-14T07:04:02;10.80;65.40
33655;DHT22;19997;51.274;22.506;2023-03-14T07:06:30;10.90;65.30
33655;DHT22;19997;51.274;22.506;2023-03-14T07:08:57;11.00;65.30
33655;DHT22;19997;51.274;22.506;2023-03-14T07:11:26;11.00;64.80
33655;DHT22;19997;51.274;22.506;2023-03-14T07:13:53;11.10;65.50
33655;DHT22;19997;51.274;22.506;2023-03-14T07:16:20;11.10;64.50
33655;DHT22;19997;51.274;22.506;2023-03-14T07:18:47;11.20;64.50
33655;DHT22;19997;51.274;22.506;2023-03-14T07:21:15;11.30;64.50
33655;DHT22;19997;51.274;22.506;2023-03-14T07:23:42;11.40;64.40
33655;DHT22;19997;51.274;22.506;2023-03-14T07:26:11;11.50;64.40
33655;DHT22;19997;51.274;22.506;2023-03-14T07:28:45;11.60;64.50
33655;DHT22;19997;51.274;22.506;2023-03-14T07:31:16;11.70;64.30
33655;DHT22;19997;51.274;22.506;2023-03-14T07:33:43;11.80;64.20
33655;DHT22;19997;51.274;22.506;2023-03-14T07:36:10;11.90;64.10
33655;DHT22;19997;51.274;22.506;2023-03-14T07:38:40;11.90;63.80
33655;DHT22;19997;51.274;22.506;2023-03-14T07:41:28;12.00;63.90
33655;DHT22;19997;51.274;22.506;2023-03-14T07:44:15;12.00;64.00
33655;DHT22;19997;51.274;22.506;2023-03-14T07:46:42;12.10;63.80
33655;DHT22;19997;51.274;22.506;2023-03-14T07:49:09;12.20;64.00
33655;DHT22;19997;51.274;22.506;2023-03-14T07:51:36;12.30;64.10
33655;DHT22;19997;51.274;22.506;2023-03-14T07:54:03;12.40;64.00
33655;DHT22;19997;51.274;22.506;2023-03-14T07:56:30;12.50;63.80
33655;DHT22;19997;51.274;22.506;2023-03-14T07:58:57;12.60;63.70
33655;DHT22;19997;51.274;22.506;2023-03-14T08:01:26;12.70;63.60
33655;DHT22;19997;51.274;22.506;2023-03-14T08:03:53;12.70;63.20
33655;DHT22;19997;51.274;22.506;2023-03-14T08:06:20;12.80;63.20
33655;DHT22;19997;51.274;22.506;2023-03-14T08:08:47;12.90;63.20
33655;DHT22;19997;51.274;22.506;2023-03-14T08:11:14;13.00;62.70
33655;DHT22;19997;51.274;22.506;2023-03-14T08:13:41;13.00;62.90
33655;DHT22;19997;51.274;22.506;2023-03-14T08:16:15;13.10;62.40
33655;DHT22;19997;51.274;22.506;2023-03-14T08:18:44;13.20;62.50
33655;DHT22;19997;51.274;22.506;2023-03-14T08:21:12;13.30;62.70
33655;DHT22;19997;51.274;22.506;2023-03-14T08:23:39;13.30;63.00
33655;DHT22;19997;51.274;22.506;2023-03-14T08:26:07;13.40;62.50
33655;DHT22;19997;51.274;22.506;2023-03-14T08:28:34;13.50;62.70
33655;DHT22;19997;51.274;22.506;2023-03-14T08:31:01;13.60;62.80
33655;DHT22;19997;51.274;22.506;2023-03-14T08:33:29;13.70;62.50
33655;DHT22;19997;51.274;22.506;2023-03-14T08:35:59;13.70;62.00
33655;DHT22;19997;51.274;22.506;2023-03-14T08:38:27;13.80;61.70
33655;DHT22;19997;51.274;22.506;2023-03-14T08:40:57;13.80;61.70
33655;DHT22;19997;51.274;22.506;2023-03-14T08:43:25;13.80;61.60
33655;DHT22;19997;51.274;22.506;2023-03-14T08:45:52;13.80;61.30
33655;DHT22;19997;51.274;22.506;2023-03-14T08:48:20;13.80;61.40
33655;DHT22;19997;51.274;22.506;2023-03-14T08:50:47;13.70;61.30
33655;DHT22;19997;51.274;22.506;2023-03-14T08:53:15;13.70;61.50
33655;DHT22;19997;51.274;22.506;2023-03-14T08:55:42;13.70;61.90
33655;DHT22;19997;51.274;22.506;2023-03-14T08:58:09;13.80;62.00
33655;DHT22;19997;51.274;22.506;2023-03-14T09:00:36;13.80;61.80
33655;DHT22;19997;51.274;22.506;2023-03-14T09:03:03;13.90;61.50
33655;DHT22;19997;51.274;22.506;2023-03-14T09:05:32;13.90;61.40
33655;DHT22;19997;51.274;22.506;2023-03-14T09:08:00;13.90;61.30
33655;DHT22;19997;51.274;22.506;2023-03-14T09:10:29;14.00;61.30
33655;DHT22;19997;51.274;22.506;2023-03-14T09:12:56;14.00;61.30
33655;DHT22;19997;51.274;22.506;2023-03-14T09:15:23;14.10;61.40
33655;DHT22;19997;51.274;22.506;2023-03-14T09:17:50;14.20;61.00
33655;DHT22;19997;51.274;22.506;2023-03-14T09:20:18;14.20;60.60
33655;DHT22;19997;51.274;22.506;2023-03-14T09:22:45;14.40;61.00
33655;DHT22;19997;51.274;22.506;2023-03-14T09:25:12;14.50;60.60
33655;DHT22;19997;51.274;22.506;2023-03-14T09:27:40;14.60;60.90
33655;DHT22;19997;51.274;22.506;2023-03-14T09:30:08;14.70;60.00
33655;DHT22;19997;51.274;22.506;2023-03-14T09:32:36;14.80;59.60
33655;DHT22;19997;51.274;22.506;2023-03-14T09:35:04;14.90;59.30
33655;DHT22;19997;51.274;22.506;2023-03-14T09:37:31;15.00;59.40
33655;DHT22;19997;51.274;22.506;2023-03-14T09:39:58;15.10;58.90
33655;DHT22;19997;51.274;22.506;2023-03-14T09:42:26;15.20;58.90
33655;DHT22;19997;51.274;22.506;2023-03-14T09:44:59;15.30;58.60
33655;DHT22;19997;51.274;22.506;2023-03-14T09:47:26;15.40;58.20
33655;DHT22;19997;51.274;22.506;2023-03-14T09:49:54;15.50;58.20
33655;DHT22;19997;51.274;22.506;2023-03-14T09:52:23;15.50;58.00
33655;DHT22;19997;51.274;22.506;2023-03-14T09:54:52;15.40;57.90
33655;DHT22;19997;51.274;22.506;2023-03-14T09:57:21;15.40;58.20
33655;DHT22;19997;51.274;22.506;2023-03-14T09:59:52;15.50;58.30
33655;DHT22;19997;51.274;22.506;2023-03-14T10:02:24;15.50;58.40
33655;DHT22;19997;51.274;22.506;2023-03-14T10:04:53;15.60;58.80
33655;DHT22;19997;51.274;22.506;2023-03-14T10:07:25;15.60;58.60
33655;DHT22;19997;51.274;22.506;2023-03-14T10:09:54;15.70;58.30
33655;DHT22;19997;51.274;22.506;2023-03-14T10:12:30;15.70;58.10
33655;DHT22;19997;51.274;22.506;2023-03-14T10:15:02;15.80;58.20
33655;DHT22;19997;51.274;22.506;2023-03-14T10:17:39;15.80;58.30
33655;DHT22;19997;51.274;22.506;2023-03-14T10:20:14;15.90;58.40
33655;DHT22;19997;51.274;22.506;2023-03-14T10:22:53;15.90;58.40
33655;DHT22;19997;51.274;22.506;2023-03-14T10:25:27;16.00;58.10
33655;DHT22;19997;51.274;22.506;2023-03-14T10:27:55;16.00;58.00
33655;DHT22;19997;51.274;22.506;2023-03-14T10:30:33;16.10;57.50
33655;DHT22;19997;51.274;22.506;2023-03-14T10:33:19;16.00;57.20
33655;DHT22;19997;51.274;22.506;2023-03-14T10:35:52;16.00;57.40
33655;DHT22;19997;51.274;22.506;2023-03-14T10:38:23;16.10;57.40
33655;DHT22;19997;51.274;22.506;2023-03-14T10:40:52;16.10;57.30
33655;DHT22;19997;51.274;22.506;2023-03-14T10:43:23;16.10;57.40
33655;DHT22;19997;51.274;22.506;2023-03-14T10:45:55;16.20;57.10
33655;DHT22;19997;51.274;22.506;2023-03-14T10:48:30;16.20;56.80
33655;DHT22;19997;51.274;22.506;2023-03-14T10:51:03;16.30;57.10
33655;DHT22;19997;51.274;22.506;2023-03-14T10:53:39;16.30;57.50
33655;DHT22;19997;51.274;22.506;2023-03-14T10:56:09;16.40;57.80
33655;DHT22;19997;51.274;22.506;2023-03-14T10:58:41;16.40;57.10
33655;DHT22;19997;51.274;22.506;2023-03-14T11:03:56;16.50;56.80
33655;DHT22;19997;51.274;22.506;2023-03-14T11:06:31;16.50;56.80
33655;DHT22;19997;51.274;22.506;2023-03-14T11:09:06;16.50;56.80
33655;DHT22;19997;51.274;22.506;2023-03-14T11:11:38;16.40;57.10
33655;DHT22;19997;51.274;22.506;2023-03-14T11:14:14;16.40;57.60
33655;DHT22;19997;51.274;22.506;2023-03-14T11:16:51;16.40;57.30
33655;DHT22;19997;51.274;22.506;2023-03-14T11:19:49;16.60;57.40
33655;DHT22;19997;51.274;22.506;2023-03-14T11:22:26;16.70;57.10
33655;DHT22;19997;51.274;22.506;2023-03-14T11:25:06;16.80;57.10
33655;DHT22;19997;51.274;22.506;2023-03-14T11:27:42;17.00;56.90
33655;DHT22;19997;51.274;22.506;2023-03-14T11:30:19;17.20;56.70
33655;DHT22;19997;51.274;22.506;2023-03-14T11:32:55;17.30;56.10
33655;DHT22;19997;51.274;22.506;2023-03-14T11:35:30;17.40;55.60
33655;DHT22;19997;51.274;22.506;2023-03-14T11:38:05;17.40;55.70
33655;DHT22;19997;51.274;22.506;2023-03-14T11:40:37;17.40;55.70
33655;DHT22;19997;51.274;22.506;2023-03-14T11:43:11;17.60;55.50
33655;DHT22;19997;51.274;22.506;2023-03-14T11:45:41;17.60;55.50
33655;DHT22;19997;51.274;22.506;2023-03-14T11:48:17;17.60;55.40
33655;DHT22;19997;51.274;22.506;2023-03-14T11:50:48;17.70;55.40
33655;DHT22;19997;51.274;22.506;2023-03-14T11:53:19;17.60;55.10
33655;DHT22;19997;51.274;22.506;2023-03-14T11:55:47;17.60;55.50
33655;DHT22;19997;51.274;22.506;2023-03-14T11:58:19;17.50;55.90
33655;DHT22;19997;51.274;22.506;2023-03-14T12:00:49;17.50;56.10
33655;DHT22;19997;51.274;22.506;2023-03-14T12:03:25;17.50;55.70
33655;DHT22;19997;51.274;22.506;2023-03-14T12:06:09;17.40;55.70
33655;DHT22;19997;51.274;22.506;2023-03-14T12:08:46;17.40;56.10
33655;DHT22;19997;51.274;22.506;2023-03-14T12:11:19;17.60;55.80
33655;DHT22;19997;51.274;22.506;2023-03-14T12:13:49;17.70;55.60
33655;DHT22;19997;51.274;22.506;2023-03-14T12:16:35;17.80;55.30
33655;DHT22;19997;51.274;22.506;2023-03-14T12:19:32;17.90;55.60
33655;DHT22;19997;51.274;22.506;2023-03-14T12:24:52;18.00;54.90
33655;DHT22;19997;51.274;22.506;2023-03-14T12:27:46;17.90;55.20
33655;DHT22;19997;51.274;22.506;2023-03-14T12:30:28;17.80;55.60
33655;DHT22;19997;51.274;22.506;2023-03-14T12:36:02;17.70;55.60
33655;DHT22;19997;51.274;22.506;2023-03-14T12:38:46;17.80;55.60
33655;DHT22;19997;51.274;22.506;2023-03-14T12:41:16;17.90;55.20
33655;DHT22;19997;51.274;22.506;2023-03-14T12:43:44;18.10;55.20
33655;DHT22;19997;51.274;22.506;2023-03-14T12:46:23;18.30;54.90
33655;DHT22;19997;51.274;22.506;2023-03-14T12:48:56;18.30;54.80
33655;DHT22;19997;51.274;22.506;2023-03-14T12:51:34;18.50;54.50
33655;DHT22;19997;51.274;22.506;2023-03-14T12:54:33;18.50;54.50
33655;DHT22;19997;51.274;22.506;2023-03-14T12:57:12;18.40;54.30
33655;DHT22;19997;51.274;22.506;2023-03-14T12:59:47;18.30;54.50
33655;DHT22;19997;51.274;22.506;2023-03-14T13:02:21;18.20;54.90
33655;DHT22;19997;51.274;22.506;2023-03-14T13:04:51;18.10;55.20
33655;DHT22;19997;51.274;22.506;2023-03-14T13:07:31;18.10;55.10
33655;DHT22;19997;51.274;22.506;2023-03-14T13:10:18;17.90;55.30
33655;DHT22;19997;51.274;22.506;2023-03-14T13:12:51;17.80;55.40
33655;DHT22;19997;51.274;22.506;2023-03-14T13:15:21;17.70;55.70
33655;DHT22;19997;51.274;22.506;2023-03-14T13:17:50;17.60;56.20
33655;DHT22;19997;51.274;22.506;2023-03-14T13:20:23;17.40;56.50
33655;DHT22;19997;51.274;22.506;2023-03-14T13:22:51;17.30;57.00
33655;DHT22;19997;51.274;22.506;2023-03-14T13:25:20;17.20;56.80
33655;DHT22;19997;51.274;22.506;2023-03-14T13:27:53;17.20;56.90
33655;DHT22;19997;51.274;22.506;2023-03-14T13:30:23;17.10;57.40
33655;DHT22;19997;51.274;22.506;2023-03-14T13:32:52;17.00;57.60
33655;DHT22;19997;51.274;22.506;2023-03-14T13:35:22;17.00;57.40
33655;DHT22;19997;51.274;22.506;2023-03-14T13:37:55;16.90;57.70
33655;DHT22;19997;51.274;22.506;2023-03-14T13:40:30;17.00;57.70
33655;DHT22;19997;51.274;22.506;2023-03-14T13:43:10;17.10;57.50
33655;DHT22;19997;51.274;22.506;2023-03-14T13:45:45;17.10;57.40
33655;DHT22;19997;51.274;22.506;2023-03-14T13:48:13;17.20;57.50
33655;DHT22;19997;51.274;22.506;2023-03-14T13:50:46;17.30;57.50
33655;DHT22;19997;51.274;22.506;2023-03-14T13:53:13;17.40;57.40
33655;DHT22;19997;51.274;22.506;2023-03-14T13:55:42;17.50;57.50
33655;DHT22;19997;51.274;22.506;2023-03-14T13:58:27;17.60;57.20
33655;DHT22;19997;51.274;22.506;2023-03-14T14:01:01;17.60;56.80
33655;DHT22;19997;51.274;22.506;2023-03-14T14:03:32;17.60;56.70
33655;DHT22;19997;51.274;22.506;2023-03-14T14:06:00;17.60;57.10
33655;DHT22;19997;51.274;22.506;2023-03-14T14:08:27;17.60;57.00
33655;DHT22;19997;51.274;22.506;2023-03-14T14:10:59;17.60;57.10
33655;DHT22;19997;51.274;22.506;2023-03-14T14:13:30;17.60;57.00
33655;DHT22;19997;51.274;22.506;2023-03-14T14:16:00;17.60;57.10
33655;DHT22;19997;51.274;22.506;2023-03-14T14:18:31;17.60;57.30
33655;DHT22;19997;51.274;22.506;2023-03-14T14:20:59;17.50;57.40
33655;DHT22;19997;51.274;22.506;2023-03-14T14:23:28;17.40;57.50
33655;DHT22;19997;51.274;22.506;2023-03-14T14:25:59;17.30;57.70
33655;DHT22;19997;51.274;22.506;2023-03-14T14:28:27;17.10;58.00
33655;DHT22;19997;51.274;22.506;2023-03-14T14:31:17;17.00;58.20
33655;DHT22;19997;51.274;22.506;2023-03-14T14:33:46;16.90;58.40
33655;DHT22;19997;51.274;22.506;2023-03-14T14:36:23;16.80;58.60
33655;DHT22;19997;51.274;22.506;2023-03-14T14:38:51;16.70;58.80
33655;DHT22;19997;51.274;22.506;2023-03-14T14:41:20;16.50;59.10
33655;DHT22;19997;51.274;22.506;2023-03-14T14:43:47;16.50;59.20
33655;DHT22;19997;51.274;22.506;2023-03-14T14:46:18;16.40;59.50
33655;DHT22;19997;51.274;22.506;2023-03-14T14:48:47;16.30;59.70
33655;DHT22;19997;51.274;22.506;2023-03-14T14:51:25;16.20;59.90
33655;DHT22;19997;51.274;22.506;2023-03-14T14:54:05;16.10;60.20
33655;DHT22;19997;51.274;22.506;2023-03-14T14:56:38;16.10;60.50
33655;DHT22;19997;51.274;22.506;2023-03-14T14:59:17;16.00;60.70
33655;DHT22;19997;51.274;22.506;2023-03-14T15:01:46;15.90;60.90
33655;DHT22;19997;51.274;22.506;2023-03-14T15:04:16;15.80;61.80
33655;DHT22;19997;51.274;22.506;2023-03-14T15:06:45;15.80;61.40
33655;DHT22;19997;51.274;22.506;2023-03-14T15:09:13;15.80;61.20
33655;DHT22;19997;51.274;22.506;2023-03-14T15:11:43;15.80;61.50
33655;DHT22;19997;51.274;22.506;2023-03-14T15:14:10;15.70;61.60
33655;DHT22;19997;51.274;22.506;2023-03-14T15:16:38;15.70;61.70
33655;DHT22;19997;51.274;22.506;2023-03-14T15:19:12;15.70;62.00
33655;DHT22;19997;51.274;22.506;2023-03-14T15:21:42;15.70;62.10
33655;DHT22;19997;51.274;22.506;2023-03-14T15:24:09;15.70;62.30
33655;DHT22;19997;51.274;22.506;2023-03-14T15:26:37;15.70;62.40
33655;DHT22;19997;51.274;22.506;2023-03-14T15:29:06;15.60;62.50
33655;DHT22;19997;51.274;22.506;2023-03-14T15:31:35;15.50;62.60
33655;DHT22;19997;51.274;22.506;2023-03-14T15:34:02;15.40;62.80
33655;DHT22;19997;51.274;22.506;2023-03-14T15:36:30;15.40;62.80
33655;DHT22;19997;51.274;22.506;2023-03-14T15:38:58;15.40;63.00
33655;DHT22;19997;51.274;22.506;2023-03-14T15:41:27;15.30;63.30
33655;DHT22;19997;51.274;22.506;2023-03-14T15:43:54;15.20;63.50
33655;DHT22;19997;51.274;22.506;2023-03-14T15:46:23;15.10;63.80
33655;DHT22;19997;51.274;22.506;2023-03-14T15:48:51;15.00;64.10
33655;DHT22;19997;51.274;22.506;2023-03-14T15:51:18;15.00;64.30
33655;DHT22;19997;51.274;22.506;2023-03-14T15:53:46;14.90;64.40
33655;DHT22;19997;51.274;22.506;2023-03-14T15:56:15;14.90;64.60
33655;DHT22;19997;51.274;22.506;2023-03-14T15:58:43;14.80;64.80